Time;durP1;ratioP1;P1;durP2;ratioP2;P2;SDS_P1;SDS_P2;PMS_P1;PMS_P2;Temp;Humidity;BMP_temperature;BMP_pressure;BME280_temperature;BME280_humidity;BME280_pressure;Samples;Min_cycle;Max_cycle;Signal;HPM_P1;HPM_P2
2023/03/07 00:02:10;;;;;;;13.30;8.87;;;3.80;99.90;;;;;;4906303;29;20222;-69
2023/03/07 00:04:35;;;;;;;15.17;8.73;;;3.70;99.90;;;;;;4905759;29;20239;-68
2023/03/07 00:07:01;;;;;;;10.63;7.07;;;3.70;99.90;;;;;;4890093;29;20622;-69
2023/03/07 00:09:26;;;;;;;9.80;6.70;;;3.70;99.90;;;;;;4906081;29;20217;-69
2023/03/07 00:11:52;;;;;;;10.60;6.87;;;3.70;99.90;;;;;;4907868;29;20187;-68
2023/03/07 00:14:18;;;;;;;12.07;7.60;;;3.70;99.90;;;;;;4892867;29;20223;-68
2023/03/07 00:16:43;;;;;;;10.80;7.03;;;3.70;99.90;;;;;;4909718;29;20191;-69
2023/03/07 00:19:10;;;;;;;8.43;6.47;;;3.70;99.90;;;;;;4909660;29;20190;-68
2023/03/07 00:21:35;;;;;;;11.27;6.00;;;3.70;99.90;;;;;;4907015;29;20413;-70
2023/03/07 00:24:01;;;;;;;11.17;7.03;;;3.70;99.90;;;;;;4904825;29;20430;-67
2023/03/07 00:26:26;;;;;;;9.33;5.67;;;3.80;99.90;;;;;;4904643;29;20215;-68
2023/03/07 00:28:53;;;;;;;7.60;5.10;;;3.80;99.90;;;;;;4904650;29;20202;-68
2023/03/07 00:31:21;;;;;;;6.70;5.40;;;3.80;99.90;;;;;;4904962;29;20470;-68
2023/03/07 00:33:47;;;;;;;4.77;3.83;;;3.80;99.90;;;;;;4905207;29;20487;-69
2023/03/07 00:36:15;;;;;;;5.43;4.13;;;3.80;99.90;;;;;;4903942;29;20520;-69
2023/03/07 00:38:41;;;;;;;6.30;4.00;;;3.80;99.90;;;;;;4904090;29;20468;-68
2023/03/07 00:41:09;;;;;;;4.70;3.33;;;3.80;99.90;;;;;;4903842;29;20474;-67
2023/03/07 00:43:36;;;;;;;5.37;4.40;;;3.80;99.90;;;;;;4903702;29;20430;-68
2023/03/07 00:46:02;;;;;;;5.77;4.03;;;3.80;99.90;;;;;;4904306;29;20779;-67
2023/03/07 00:48:28;;;;;;;4.87;3.57;;;3.80;99.90;;;;;;4904049;29;20410;-67
2023/03/07 00:50:55;;;;;;;5.53;3.97;;;3.80;99.90;;;;;;4887446;29;20450;-68
2023/03/07 00:53:22;;;;;;;5.43;3.73;;;3.80;99.90;;;;;;4886802;29;20480;-68
2023/03/07 00:55:58;;;;;;;4.63;3.20;;;3.80;99.90;;;;;;4889155;29;20431;-68
2023/03/07 00:58:28;;;;;;;4.70;3.10;;;3.80;99.90;;;;;;4904341;29;20215;-69
2023/03/07 01:00:54;;;;;;;6.30;4.30;;;3.80;99.90;;;;;;4904376;29;20459;-69
2023/03/07 01:03:21;;;;;;;5.30;3.93;;;3.80;99.90;;;;;;4903708;29;20486;-67
2023/03/07 01:05:47;;;;;;;6.23;4.80;;;3.80;99.90;;;;;;4904228;29;20482;-68
2023/03/07 01:08:13;;;;;;;4.97;3.47;;;3.80;99.90;;;;;;4904510;29;20620;-68
2023/03/07 01:10:38;;;;;;;5.03;3.87;;;3.80;99.90;;;;;;4887565;29;20191;-68
2023/03/07 01:13:04;;;;;;;3.80;2.70;;;3.80;99.90;;;;;;4904215;29;20790;-68
2023/03/07 01:15:30;;;;;;;5.20;3.80;;;3.80;99.90;;;;;;4903650;29;20630;-69
2023/03/07 01:17:56;;;;;;;5.40;3.97;;;3.80;99.90;;;;;;4886795;29;20187;-67
2023/03/07 01:20:22;;;;;;;5.17;4.17;;;3.80;99.90;;;;;;4886889;29;20420;-68
2023/03/07 01:22:47;;;;;;;5.00;3.80;;;3.80;99.90;;;;;;4886549;29;20558;-68
2023/03/07 01:25:13;;;;;;;6.47;4.37;;;3.80;99.90;;;;;;4903615;29;20630;-70
2023/03/07 01:27:39;;;;;;;5.43;4.07;;;3.90;99.90;;;;;;4890758;29;20219;-69
2023/03/07 01:30:07;;;;;;;18.37;5.20;;;3.90;99.90;;;;;;4891182;29;20407;-70
2023/03/07 01:32:34;;;;;;;6.27;4.00;;;3.90;99.90;;;;;;4891815;29;20765;-68
2023/03/07 01:35:00;;;;;;;4.73;3.43;;;3.90;99.90;;;;;;4877662;29;20467;-70
2023/03/07 01:37:26;;;;;;;6.47;4.40;;;3.90;99.90;;;;;;4876038;29;20195;-69
2023/03/07 01:39:52;;;;;;;5.40;4.10;;;3.90;99.90;;;;;;4891045;29;20191;-66
2023/03/07 01:42:20;;;;;;;6.27;4.00;;;3.90;99.90;;;;;;4859999;29;20657;-70
2023/03/07 01:44:58;;;;;;;5.40;3.70;;;3.90;99.90;;;;;;4875307;29;20447;-68
2023/03/07 01:47:24;;;;;;;5.93;3.70;;;3.90;99.90;;;;;;4888863;29;20424;-69
2023/03/07 01:49:52;;;;;;;5.20;3.20;;;3.80;99.90;;;;;;4867931;29;20420;-68
2023/03/07 01:52:28;;;;;;;6.20;4.03;;;3.90;99.90;;;;;;4886241;29;20438;-69
2023/03/07 01:55:04;;;;;;;8.30;4.70;;;3.90;99.90;;;;;;4885810;29;20450;-68
2023/03/07 01:57:34;;;;;;;8.10;4.60;;;3.90;99.90;;;;;;4886320;29;20498;-69
2023/03/07 02:00:07;;;;;;;7.10;5.07;;;3.90;99.90;;;;;;4886106;29;20492;-68
2023/03/07 02:02:41;;;;;;;8.33;4.70;;;3.90;99.90;;;;;;4902950;29;20526;-69
2023/03/07 02:05:14;;;;;;;8.30;6.10;;;3.90;99.90;;;;;;4885884;29;20471;-68
2023/03/07 02:07:48;;;;;;;7.13;5.30;;;3.90;99.90;;;;;;4887059;29;20420;-70
2023/03/07 02:10:19;;;;;;;6.47;4.00;;;3.90;99.90;;;;;;4886654;29;20419;-67
2023/03/07 02:12:44;;;;;;;6.83;4.73;;;3.80;99.90;;;;;;4886176;29;20450;-68
2023/03/07 02:15:12;;;;;;;5.90;4.40;;;3.90;99.90;;;;;;4867002;29;20925;-69
2023/03/07 02:17:42;;;;;;;8.33;5.30;;;3.90;99.90;;;;;;4867623;29;20436;-68
2023/03/07 02:20:49;;;;;;;6.73;4.40;;;3.90;99.90;;;;;;4867499;29;20425;-68
2023/03/07 02:23:33;;;;;;;5.37;4.40;;;3.90;99.90;;;;;;4867492;29;20466;-67
2023/03/07 02:26:05;;;;;;;6.23;4.97;;;3.90;99.90;;;;;;4868137;29;20806;-70
2023/03/07 02:28:32;;;;;;;6.03;4.87;;;4.00;99.90;;;;;;4873095;29;20856;-69
2023/03/07 02:31:05;;;;;;;7.13;4.67;;;4.00;99.90;;;;;;4874079;29;20400;-69
2023/03/07 02:33:33;;;;;;;5.67;4.20;;;4.10;99.90;;;;;;4868588;29;20450;-69
2023/03/07 02:36:11;;;;;;;5.53;4.83;;;4.10;99.90;;;;;;4882165;29;20455;-67
2023/03/07 02:38:45;;;;;;;7.37;4.90;;;4.10;99.90;;;;;;4850912;29;20543;-66
2023/03/07 02:41:13;;;;;;;6.40;4.40;;;4.10;99.90;;;;;;4867426;29;20475;-68
2023/03/07 02:43:39;;;;;;;7.40;5.23;;;4.20;99.90;;;;;;4882763;29;20698;-68
2023/03/07 02:46:06;;;;;;;7.27;5.40;;;4.10;99.90;;;;;;4866874;29;20452;-67
2023/03/07 02:48:31;;;;;;;5.50;4.90;;;4.20;99.90;;;;;;4866765;29;20876;-68
2023/03/07 02:50:58;;;;;;;8.03;5.50;;;4.20;99.90;;;;;;4870659;29;20198;-68
2023/03/07 02:53:24;;;;;;;5.80;4.53;;;4.30;99.90;;;;;;4902704;29;20419;-69
2023/03/07 02:55:49;;;;;;;7.23;5.00;;;4.30;99.90;;;;;;4878840;29;20524;-68
2023/03/07 02:58:15;;;;;;;5.63;5.07;;;4.30;99.90;;;;;;4866693;29;20252;-67
2023/03/07 03:00:42;;;;;;;7.00;5.03;;;4.30;99.90;;;;;;4866802;29;20448;-68
2023/03/07 03:03:08;;;;;;;6.50;4.90;;;4.40;99.90;;;;;;4866809;29;20591;-67
2023/03/07 03:05:33;;;;;;;7.67;5.53;;;4.40;99.90;;;;;;4891195;29;20463;-68
2023/03/07 03:07:59;;;;;;;7.03;5.33;;;4.40;99.90;;;;;;4885297;29;20470;-68
2023/03/07 03:10:24;;;;;;;5.37;4.70;;;4.40;99.90;;;;;;4885485;29;20179;-68
2023/03/07 03:12:50;;;;;;;5.43;4.30;;;4.50;99.90;;;;;;4902052;29;20194;-68
2023/03/07 03:15:16;;;;;;;8.27;5.70;;;4.50;99.90;;;;;;4885236;29;20262;-67
2023/03/07 03:17:42;;;;;;;5.10;4.60;;;4.40;99.90;;;;;;4901450;29;20411;-67
2023/03/07 03:20:10;;;;;;;6.30;4.40;;;4.40;99.90;;;;;;4901734;29;20212;-68
2023/03/07 03:22:39;;;;;;;6.90;5.43;;;4.40;99.90;;;;;;4884655;29;20637;-68
2023/03/07 03:25:08;;;;;;;8.53;5.30;;;4.30;99.90;;;;;;4884636;29;20895;-68
2023/03/07 03:27:36;;;;;;;6.40;5.00;;;4.30;99.90;;;;;;4884388;29;21012;-68
2023/03/07 03:30:04;;;;;;;6.33;4.50;;;4.30;99.90;;;;;;4884692;29;20507;-68
2023/03/07 03:32:35;;;;;;;4.63;3.73;;;4.30;99.90;;;;;;4884912;29;20430;-67
2023/03/07 03:35:00;;;;;;;6.17;4.70;;;4.20;99.90;;;;;;4904172;29;20755;-69
2023/03/07 03:37:26;;;;;;;4.60;3.47;;;4.20;99.90;;;;;;4884247;29;20431;-68
2023/03/07 03:39:53;;;;;;;5.27;4.20;;;4.20;99.90;;;;;;4884751;29;20187;-69
2023/03/07 03:42:19;;;;;;;6.60;5.30;;;4.20;99.90;;;;;;4884022;29;20929;-69
2023/03/07 03:44:44;;;;;;;6.40;3.80;;;4.20;99.90;;;;;;4883785;29;20620;-68
2023/03/07 03:47:11;;;;;;;7.63;4.90;;;4.20;99.90;;;;;;4883578;29;20297;-68
2023/03/07 03:49:37;;;;;;;5.27;4.47;;;4.10;99.90;;;;;;4884381;29;20476;-67
2023/03/07 03:52:03;;;;;;;5.40;4.27;;;4.10;99.90;;;;;;4884434;29;20411;-67
2023/03/07 03:54:30;;;;;;;7.43;4.93;;;4.10;99.90;;;;;;4884517;29;20270;-68
2023/03/07 03:56:56;;;;;;;5.73;4.60;;;4.10;99.90;;;;;;4883965;29;20775;-68
2023/03/07 03:59:22;;;;;;;6.50;5.10;;;4.10;99.90;;;;;;4900804;29;20471;-68
2023/03/07 04:01:48;;;;;;;5.03;4.37;;;4.10;99.90;;;;;;4884113;29;20522;-68
2023/03/07 04:04:14;;;;;;;6.20;4.60;;;4.00;99.90;;;;;;4901305;29;20922;-67
2023/03/07 04:06:41;;;;;;;5.60;3.53;;;4.00;99.90;;;;;;4900358;29;20234;-68
2023/03/07 04:09:07;;;;;;;5.33;4.73;;;4.00;99.90;;;;;;4884308;29;20434;-68
2023/03/07 04:11:35;;;;;;;8.43;5.53;;;4.00;99.90;;;;;;4884514;29;20685;-67
2023/03/07 04:14:01;;;;;;;8.70;6.10;;;4.00;99.90;;;;;;4883554;29;20483;-68
2023/03/07 04:16:27;;;;;;;7.03;5.60;;;4.00;99.90;;;;;;4900150;29;20211;-68
2023/03/07 04:18:54;;;;;;;8.53;4.93;;;4.00;99.90;;;;;;4884361;29;20723;-68
2023/03/07 04:21:20;;;;;;;6.30;4.70;;;3.90;99.90;;;;;;4884594;29;20226;-66
2023/03/07 04:23:49;;;;;;;6.33;4.60;;;3.90;99.90;;;;;;4884263;29;20427;-69
2023/03/07 04:26:15;;;;;;;6.67;4.80;;;3.90;99.90;;;;;;4883327;29;20466;-68
2023/03/07 04:28:44;;;;;;;7.23;5.10;;;3.90;99.90;;;;;;4900377;29;20768;-67
2023/03/07 04:31:26;;;;;;;5.93;4.90;;;4.00;99.90;;;;;;4883795;29;20262;-68
2023/03/07 04:33:54;;;;;;;6.87;5.73;;;4.00;99.90;;;;;;4899364;29;20890;-69
2023/03/07 04:36:20;;;;;;;7.67;4.90;;;4.00;99.90;;;;;;4882969;29;20735;-68
2023/03/07 04:38:47;;;;;;;6.97;4.43;;;4.00;99.90;;;;;;4900607;29;20792;-67
2023/03/07 04:41:18;;;;;;;6.40;5.00;;;4.10;99.90;;;;;;4884179;29;20547;-68
2023/03/07 04:43:46;;;;;;;8.27;5.43;;;4.10;99.90;;;;;;4883965;29;20502;-67
2023/03/07 04:46:14;;;;;;;5.90;4.30;;;4.00;99.90;;;;;;4900800;29;20771;-69
2023/03/07 04:48:40;;;;;;;5.90;4.03;;;4.00;99.90;;;;;;4882969;29;20466;-67
2023/03/07 04:51:06;;;;;;;7.97;5.70;;;4.00;99.90;;;;;;4883771;29;20416;-68
2023/03/07 04:53:32;;;;;;;6.47;4.90;;;4.10;99.90;;;;;;4883660;29;20941;-68
2023/03/07 04:55:58;;;;;;;10.57;6.17;;;4.10;99.90;;;;;;4883647;29;20218;-69
2023/03/07 04:58:25;;;;;;;10.20;7.00;;;4.00;99.90;;;;;;4883363;29;20252;-68
2023/03/07 05:00:51;;;;;;;8.47;5.90;;;4.10;99.90;;;;;;4884460;29;20483;-69
2023/03/07 05:03:17;;;;;;;6.50;5.33;;;4.10;99.90;;;;;;4887532;29;20881;-68
2023/03/07 05:05:42;;;;;;;7.50;4.80;;;4.00;99.90;;;;;;4904236;29;20231;-69
2023/03/07 05:08:08;;;;;;;8.57;5.53;;;4.00;99.90;;;;;;4889055;29;20531;-69
2023/03/07 05:10:35;;;;;;;6.90;5.07;;;3.90;99.90;;;;;;4889158;29;20180;-68
2023/03/07 05:13:02;;;;;;;5.93;5.20;;;3.90;99.90;;;;;;4887263;29;20874;-68
2023/03/07 05:15:28;;;;;;;7.33;5.93;;;3.90;99.90;;;;;;4906672;29;20446;-69
2023/03/07 05:17:54;;;;;;;6.17;5.10;;;3.90;99.90;;;;;;4889517;29;20433;-69
2023/03/07 05:20:20;;;;;;;7.97;6.57;;;3.90;99.90;;;;;;4905665;29;20432;-68
2023/03/07 05:22:46;;;;;;;7.07;5.50;;;3.90;99.90;;;;;;4889831;29;20211;-69
2023/03/07 05:25:12;;;;;;;9.20;7.00;;;3.90;99.90;;;;;;4890072;29;20499;-69
2023/03/07 05:27:38;;;;;;;7.30;5.80;;;3.80;99.90;;;;;;4890432;29;20804;-69
2023/03/07 05:30:04;;;;;;;7.70;6.37;;;3.80;99.90;;;;;;4907029;29;20426;-70
2023/03/07 05:32:31;;;;;;;6.80;5.13;;;3.80;99.90;;;;;;4906714;29;20224;-68
2023/03/07 05:34:57;;;;;;;11.03;6.80;;;3.90;99.90;;;;;;4890992;29;20460;-67
2023/03/07 05:37:23;;;;;;;8.97;6.10;;;3.80;99.90;;;;;;4889784;29;20416;-68
2023/03/07 05:39:49;;;;;;;7.27;5.47;;;3.90;99.90;;;;;;4890569;29;20442;-69
2023/03/07 05:42:15;;;;;;;10.13;7.67;;;3.80;99.90;;;;;;4906422;29;20233;-68
2023/03/07 05:44:41;;;;;;;6.63;5.33;;;3.90;99.90;;;;;;4887883;29;20215;-70
2023/03/07 05:47:07;;;;;;;7.60;5.13;;;3.80;99.90;;;;;;4890122;29;20423;-69
2023/03/07 05:49:33;;;;;;;11.57;8.70;;;3.80;99.90;;;;;;4889361;29;20482;-68
2023/03/07 05:51:59;;;;;;;9.43;7.60;;;3.80;99.90;;;;;;4891945;29;20423;-70
2023/03/07 05:54:25;;;;;;;11.20;8.00;;;3.80;99.90;;;;;;4892322;29;20187;-71
2023/03/07 05:56:51;;;;;;;9.43;6.80;;;3.80;99.90;;;;;;4908373;29;20190;-69
2023/03/07 05:59:17;;;;;;;10.30;6.60;;;3.80;99.90;;;;;;4890446;29;20427;-69
2023/03/07 06:01:46;;;;;;;9.07;7.10;;;3.80;99.90;;;;;;4890748;29;20470;-71
2023/03/07 06:04:11;;;;;;;9.50;6.90;;;3.90;99.90;;;;;;4889750;29;20878;-71
2023/03/07 06:06:37;;;;;;;9.57;7.33;;;3.80;99.90;;;;;;4889165;29;20269;-71
2023/03/07 06:09:04;;;;;;;10.37;6.97;;;3.80;99.90;;;;;;4887616;29;20189;-67
2023/03/07 06:11:31;;;;;;;9.60;6.60;;;3.90;99.90;;;;;;4895673;29;20187;-73
2023/03/07 06:13:57;;;;;;;8.80;6.83;;;3.80;99.90;;;;;;4879236;29;20424;-70
2023/03/07 06:16:23;;;;;;;7.37;6.03;;;3.90;99.90;;;;;;4892158;29;20519;-72
2023/03/07 06:18:49;;;;;;;9.90;6.93;;;3.80;99.90;;;;;;4861450;29;20763;-70
2023/03/07 06:21:17;;;;;;;11.30;6.10;;;3.80;99.90;;;;;;4888992;29;20443;-68
2023/03/07 06:23:44;;;;;;;7.20;5.50;;;3.90;99.90;;;;;;4889732;29;20602;-73
2023/03/07 06:26:13;;;;;;;10.73;7.53;;;3.90;99.90;;;;;;4888684;29;20943;-68
2023/03/07 06:28:41;;;;;;;11.60;7.03;;;3.90;99.90;;;;;;4888564;29;20431;-69
2023/03/07 06:31:13;;;;;;;9.67;7.40;;;3.90;99.90;;;;;;4888678;29;20467;-71
2023/03/07 06:33:38;;;;;;;11.20;6.00;;;3.90;99.90;;;;;;4890670;29;20436;-70
2023/03/07 06:36:10;;;;;;;11.37;8.13;;;4.00;99.90;;;;;;4889959;29;20468;-70
2023/03/07 06:38:38;;;;;;;10.37;7.43;;;4.00;99.90;;;;;;4906612;29;20483;-70
2023/03/07 06:41:04;;;;;;;14.77;7.40;;;4.00;99.90;;;;;;4906310;29;20490;-71
2023/03/07 06:43:31;;;;;;;11.27;6.10;;;4.00;99.90;;;;;;4889552;29;20416;-70
2023/03/07 06:45:57;;;;;;;10.43;8.00;;;4.00;99.90;;;;;;4892617;29;20499;-72
2023/03/07 06:48:26;;;;;;;12.77;8.30;;;4.00;99.90;;;;;;4907718;29;20450;-72
2023/03/07 06:50:52;;;;;;;13.03;8.10;;;4.00;99.90;;;;;;4889136;29;20423;-71
2023/03/07 06:53:17;;;;;;;8.10;6.03;;;4.00;99.90;;;;;;4890559;29;20187;-72
2023/03/07 06:55:50;;;;;;;9.27;6.50;;;4.00;99.90;;;;;;4890488;29;20221;-73
2023/03/07 06:58:16;;;;;;;14.13;7.23;;;4.10;99.90;;;;;;4890343;29;20526;-69
2023/03/07 07:00:42;;;;;;;12.10;8.60;;;4.10;99.90;;;;;;4890390;29;20467;-69
2023/03/07 07:03:13;;;;;;;11.13;6.90;;;4.10;99.90;;;;;;4891524;29;20434;-74
2023/03/07 07:05:39;;;;;;;14.50;10.50;;;4.10;99.90;;;;;;4890170;29;20546;-71
2023/03/07 07:08:04;;;;;;;14.23;8.90;;;4.10;99.90;;;;;;4891897;29;20447;-71
2023/03/07 07:10:30;;;;;;;12.53;8.60;;;4.10;99.90;;;;;;4890713;29;20266;-70
2023/03/07 07:12:57;;;;;;;14.60;9.70;;;4.20;99.90;;;;;;4888953;29;20427;-71
2023/03/07 07:15:24;;;;;;;13.87;9.57;;;4.20;99.90;;;;;;4875888;29;20443;-72
2023/03/07 07:17:51;;;;;;;12.77;8.33;;;4.20;99.90;;;;;;4907603;29;20869;-71
2023/03/07 07:20:17;;;;;;;13.43;9.80;;;4.30;99.90;;;;;;4889538;29;20419;-69
2023/03/07 07:22:44;;;;;;;11.43;8.73;;;4.30;99.90;;;;;;4904782;29;20471;-72
2023/03/07 07:25:10;;;;;;;13.20;8.77;;;4.30;99.90;;;;;;4891675;29;20712;-75
2023/03/07 07:27:36;;;;;;;14.57;9.03;;;4.30;99.90;;;;;;4907978;29;20423;-72
2023/03/07 07:30:04;;;;;;;10.67;7.90;;;4.30;99.90;;;;;;4906548;29;20412;-70
2023/03/07 07:32:30;;;;;;;19.00;9.50;;;4.30;99.90;;;;;;4908169;29;20517;-74
2023/03/07 07:34:57;;;;;;;13.50;9.07;;;4.30;99.90;;;;;;4907690;29;20880;-72
2023/03/07 07:37:23;;;;;;;13.60;7.73;;;4.40;99.90;;;;;;4892367;29;20907;-74
2023/03/07 07:39:50;;;;;;;14.80;9.23;;;4.30;99.90;;;;;;4891080;29;20431;-73
2023/03/07 07:42:15;;;;;;;13.30;8.87;;;4.30;99.90;;;;;;4908271;29;20535;-72
2023/03/07 07:44:54;;;;;;;10.47;6.87;;;4.30;99.90;;;;;;4890181;29;20537;-74
2023/03/07 07:47:20;;;;;;;10.73;7.60;;;4.30;99.90;;;;;;4874546;29;20434;-69
2023/03/07 07:49:46;;;;;;;15.80;8.00;;;4.40;99.90;;;;;;4905824;29;20708;-71
2023/03/07 07:52:11;;;;;;;14.50;8.00;;;4.40;99.90;;;;;;4889799;29;20478;-71
2023/03/07 07:54:38;;;;;;;12.30;8.00;;;4.40;99.90;;;;;;4889958;29;20294;-70
2023/03/07 07:57:04;;;;;;;12.37;7.80;;;4.40;99.90;;;;;;4876301;29;20550;-69
2023/03/07 07:59:32;;;;;;;8.97;5.83;;;4.50;99.90;;;;;;4875115;29;20198;-69
2023/03/07 08:01:59;;;;;;;11.03;7.27;;;4.40;99.90;;;;;;4888304;29;20222;-71
2023/03/07 08:04:24;;;;;;;9.87;7.10;;;4.50;99.90;;;;;;4874308;29;20452;-70
2023/03/07 08:06:51;;;;;;;12.53;8.33;;;4.50;99.90;;;;;;4890049;29;20468;-71
2023/03/07 08:09:17;;;;;;;13.53;8.10;;;4.50;99.90;;;;;;4889202;29;20183;-69
2023/03/07 08:11:42;;;;;;;9.13;6.93;;;4.60;99.90;;;;;;4907291;29;20500;-71
2023/03/07 08:14:08;;;;;;;12.07;8.43;;;4.70;99.90;;;;;;4900069;29;20491;-71
2023/03/07 08:16:34;;;;;;;14.80;7.83;;;4.70;99.90;;;;;;4907564;29;20246;-73
2023/03/07 08:19:00;;;;;;;14.90;8.30;;;4.70;99.90;;;;;;4894233;29;20455;-73
2023/03/07 08:21:26;;;;;;;9.90;6.43;;;4.80;99.90;;;;;;4908757;29;20226;-73
2023/03/07 08:23:54;;;;;;;12.57;7.50;;;4.80;99.90;;;;;;4912118;29;20280;-73
2023/03/07 08:26:21;;;;;;;10.90;6.30;;;4.90;99.90;;;;;;4911090;29;20214;-75
2023/03/07 08:28:46;;;;;;;7.80;5.53;;;5.00;99.90;;;;;;4877524;29;20460;-72
2023/03/07 08:31:18;;;;;;;8.70;5.87;;;5.10;99.90;;;;;;4889205;29;20440;-71
2023/03/07 08:33:46;;;;;;;8.80;6.40;;;5.10;99.90;;;;;;4878968;29;20468;-72
2023/03/07 08:36:13;;;;;;;7.67;6.00;;;5.20;99.90;;;;;;4894608;29;20538;-74
2023/03/07 08:38:39;;;;;;;7.20;5.50;;;5.30;99.90;;;;;;4897702;29;20505;-74
2023/03/07 08:41:06;;;;;;;8.20;5.00;;;5.40;99.90;;;;;;4880953;29;20473;-73
2023/03/07 08:43:35;;;;;;;8.87;6.13;;;5.40;99.90;;;;;;4912581;29;20427;-71
2023/03/07 08:46:00;;;;;;;7.20;5.27;;;5.50;99.90;;;;;;4912766;29;20474;-72
2023/03/07 08:48:26;;;;;;;7.90;6.27;;;5.50;99.90;;;;;;4912164;29;20431;-72
2023/03/07 08:50:52;;;;;;;8.30;5.80;;;5.60;99.90;;;;;;4914787;29;20176;-73
2023/03/07 08:53:21;;;;;;;7.70;5.87;;;5.60;99.90;;;;;;4881116;29;20491;-72
2023/03/07 08:55:47;;;;;;;6.30;4.70;;;5.60;99.90;;;;;;4895748;29;20472;-74
2023/03/07 08:58:13;;;;;;;5.47;4.57;;;5.70;99.90;;;;;;4879466;29;20420;-70
2023/03/07 09:00:39;;;;;;;5.97;4.83;;;5.80;99.90;;;;;;4880951;29;20206;-72
2023/03/07 09:03:06;;;;;;;5.40;4.30;;;5.80;99.90;;;;;;4895942;29;20470;-71
2023/03/07 09:05:35;;;;;;;3.90;3.23;;;5.90;99.90;;;;;;4897868;29;20907;-71
2023/03/07 09:08:00;;;;;;;6.43;4.40;;;5.90;99.90;;;;;;4894888;29;20428;-72
2023/03/07 09:10:27;;;;;;;4.70;3.27;;;6.00;99.90;;;;;;4895696;29;20415;-72
2023/03/07 09:12:54;;;;;;;5.30;3.63;;;6.10;99.40;;;;;;4910268;29;20868;-70
2023/03/07 09:15:20;;;;;;;5.80;4.13;;;6.10;98.80;;;;;;4878589;29;20278;-72
2023/03/07 09:17:46;;;;;;;5.97;4.60;;;6.10;98.50;;;;;;4908904;29;20431;-73
2023/03/07 09:20:12;;;;;;;6.03;4.67;;;6.10;98.50;;;;;;4913675;29;20414;-73
2023/03/07 09:22:38;;;;;;;7.03;4.80;;;6.20;98.70;;;;;;4912354;29;20519;-71
2023/03/07 09:25:05;;;;;;;6.43;3.30;;;6.20;97.80;;;;;;4912149;29;20427;-74
2023/03/07 09:27:31;;;;;;;12.17;7.73;;;6.20;98.70;;;;;;4880020;29;20438;-71
2023/03/07 09:29:56;;;;;;;6.57;4.27;;;6.30;97.90;;;;;;4895306;29;20451;-73
2023/03/07 09:32:22;;;;;;;9.33;5.70;;;6.30;97.40;;;;;;4896139;29;20281;-73
2023/03/07 09:34:48;;;;;;;4.93;4.10;;;6.40;97.80;;;;;;4898509;29;20207;-71
2023/03/07 09:37:14;;;;;;;11.43;5.93;;;6.50;97.40;;;;;;4897395;29;20420;-72
2023/03/07 09:39:39;;;;;;;6.97;4.93;;;6.50;96.40;;;;;;4914082;29;20179;-72
2023/03/07 09:42:27;;;;;;;10.40;6.60;;;6.50;96.10;;;;;;4908213;29;20215;-72
2023/03/07 09:45:08;;;;;;;6.90;6.00;;;6.50;95.70;;;;;;4896629;29;20222;-75
2023/03/07 09:48:04;;;;;;;8.63;5.20;;;6.60;95.40;;;;;;4896867;29;20451;-73
2023/03/07 09:50:54;;;;;;;7.43;5.13;;;6.80;96.70;;;;;;4911906;29;20443;-73
2023/03/07 09:53:35;;;;;;;7.90;5.70;;;6.90;95.40;;;;;;4881236;29;20432;-72
2023/03/07 09:56:05;;;;;;;10.47;6.77;;;7.00;94.60;;;;;;4914663;29;20522;-72
2023/03/07 09:58:32;;;;;;;6.50;5.10;;;7.00;93.90;;;;;;4907871;29;20511;-72
2023/03/07 10:01:00;;;;;;;11.10;6.97;;;7.00;94.70;;;;;;4902708;29;20454;-72
2023/03/07 10:03:45;;;;;;;8.63;5.23;;;7.00;94.50;;;;;;4890666;29;20517;-73
2023/03/07 10:06:23;;;;;;;7.80;6.63;;;6.90;95.20;;;;;;4911107;29;20487;-70
2023/03/07 10:08:50;;;;;;;7.50;5.83;;;6.90;95.00;;;;;;4898671;29;20443;-72
2023/03/07 10:11:50;;;;;;;9.80;6.33;;;7.00;95.00;;;;;;4896974;29;20452;-69
2023/03/07 10:14:40;;;;;;;10.20;6.63;;;6.90;94.50;;;;;;4900319;29;20727;-72
2023/03/07 10:17:21;;;;;;;7.53;5.30;;;6.90;94.50;;;;;;4911693;29;20424;-70
2023/03/07 10:19:53;;;;;;;8.83;5.70;;;7.00;95.40;;;;;;4912428;29;20756;-73
2023/03/07 10:22:42;;;;;;;7.80;5.43;;;6.90;95.00;;;;;;4912786;29;20515;-73
2023/03/07 10:25:20;;;;;;;14.13;8.00;;;7.00;95.40;;;;;;4913072;29;20448;-72
2023/03/07 10:27:48;;;;;;;8.80;5.50;;;7.00;95.60;;;;;;4904217;29;20427;-71
2023/03/07 10:30:17;;;;;;;7.23;5.87;;;6.90;96.70;;;;;;4865089;29;20512;-70
2023/03/07 10:33:13;;;;;;;5.03;4.53;;;6.80;96.50;;;;;;4914348;29;20447;-77
2023/03/07 10:35:43;;;;;;;4.90;3.73;;;6.70;96.40;;;;;;4900087;29;20474;-76
2023/03/07 10:38:30;;;;;;;8.17;4.67;;;6.60;97.40;;;;;;4874364;29;20449;-72
2023/03/07 10:41:20;;;;;;;5.37;3.93;;;6.50;96.40;;;;;;4885326;29;20412;-74
2023/03/07 10:43:48;;;;;;;7.90;4.63;;;6.40;97.40;;;;;;4882602;29;20426;-69
2023/03/07 10:46:17;;;;;;;5.20;3.60;;;6.30;98.80;;;;;;4888423;29;20444;-70
2023/03/07 10:48:47;;;;;;;8.43;5.43;;;6.30;99.50;;;;;;4906856;29;20439;-67
2023/03/07 10:51:44;;;;;;;5.80;4.27;;;6.20;99.70;;;;;;4909525;29;20427;-70
2023/03/07 10:54:31;;;;;;;3.70;2.80;;;6.10;99.90;;;;;;4905967;29;20707;-70
2023/03/07 10:57:15;;;;;;;6.50;3.73;;;6.10;99.90;;;;;;4895034;29;20440;-70
2023/03/07 10:59:50;;;;;;;5.20;4.10;;;6.10;99.90;;;;;;4911774;29;20420;-79
2023/03/07 11:02:32;;;;;;;9.67;4.50;;;6.00;99.90;;;;;;4902376;29;20455;-78
2023/03/07 11:05:01;;;;;;;5.40;3.70;;;6.10;99.90;;;;;;4885567;29;20577;-79
2023/03/07 11:07:34;;;;;;;6.20;4.20;;;6.10;99.90;;;;;;4907408;29;20427;-77
2023/03/07 11:10:21;;;;;;;4.47;3.20;;;6.10;99.90;;;;;;4902885;29;20432;-75
2023/03/07 11:12:50;;;;;;;6.30;5.27;;;6.20;99.90;;;;;;4897212;29;20435;-77
2023/03/07 11:15:26;;;;;;;7.80;5.80;;;6.30;99.90;;;;;;4886074;29;20450;-75
2023/03/07 11:17:57;;;;;;;9.43;6.60;;;6.40;99.90;;;;;;4901001;29;20487;-77
2023/03/07 11:20:28;;;;;;;6.77;5.13;;;6.50;99.90;;;;;;4915752;29;20733;-74
2023/03/07 11:23:17;;;;;;;7.47;4.10;;;6.50;99.90;;;;;;4898923;29;20487;-77
2023/03/07 11:25:47;;;;;;;10.10;6.50;;;6.50;99.90;;;;;;4896471;29;20466;-75
2023/03/07 11:28:35;;;;;;;7.20;6.07;;;6.40;99.90;;;;;;4885797;29;20840;-75
2023/03/07 11:31:32;;;;;;;8.43;6.30;;;6.40;99.90;;;;;;4886238;29;20444;-77
2023/03/07 11:34:37;;;;;;;8.30;7.03;;;6.30;99.90;;;;;;4884963;29;20777;-75
2023/03/07 11:37:42;;;;;;;6.03;5.23;;;6.40;99.90;;;;;;4902241;29;20435;-75
2023/03/07 11:40:13;;;;;;;8.33;5.90;;;6.30;99.90;;;;;;4897724;29;20503;-74
2023/03/07 11:42:46;;;;;;;8.87;6.03;;;6.40;99.90;;;;;;4917526;29;20459;-76
2023/03/07 11:45:33;;;;;;;8.60;6.00;;;6.40;99.90;;;;;;4883484;29;20449;-75
2023/03/07 11:48:26;;;;;;;9.17;6.43;;;6.30;99.90;;;;;;4879891;29;20424;-75
2023/03/07 11:50:56;;;;;;;7.90;5.23;;;6.30;99.90;;;;;;4900781;29;20430;-75
2023/03/07 11:53:34;;;;;;;10.23;6.00;;;6.10;99.90;;;;;;4897238;29;20460;-73
2023/03/07 11:56:20;;;;;;;7.80;5.63;;;6.00;99.90;;;;;;4912724;29;20445;-74
2023/03/07 11:59:13;;;;;;;9.10;6.53;;;6.00;99.90;;;;;;4904068;29;20411;-72
2023/03/07 12:01:51;;;;;;;7.80;6.03;;;6.00;99.90;;;;;;4879964;29;20463;-74
2023/03/07 12:04:48;;;;;;;9.00;6.10;;;5.90;99.90;;;;;;4883482;29;20432;-75
2023/03/07 12:07:45;;;;;;;8.20;6.37;;;5.80;99.90;;;;;;4865198;29;20420;-76
2023/03/07 12:10:38;;;;;;;7.37;6.43;;;5.70;99.90;;;;;;4858195;29;20433;-78
2023/03/07 12:13:17;;;;;;;9.33;6.47;;;5.50;99.90;;;;;;4843340;29;20430;-76
2023/03/07 12:16:01;;;;;;;9.23;6.93;;;5.50;99.90;;;;;;4845187;29;20449;-74
2023/03/07 12:18:33;;;;;;;6.63;4.90;;;5.50;99.90;;;;;;4862551;29;20434;-75
2023/03/07 12:21:31;;;;;;;8.20;6.30;;;5.50;99.90;;;;;;4844096;29;20435;-78
2023/03/07 12:24:36;;;;;;;7.07;5.93;;;5.20;99.90;;;;;;4845376;29;20475;-76
2023/03/07 12:27:16;;;;;;;7.80;5.70;;;5.10;99.90;;;;;;4828721;29;20450;-75
2023/03/07 12:29:57;;;;;;;7.90;5.57;;;4.90;99.90;;;;;;4837941;29;20541;-75
2023/03/07 12:32:26;;;;;;;8.87;6.57;;;4.80;99.90;;;;;;4840004;29;20480;-73
2023/03/07 12:35:05;;;;;;;9.00;6.10;;;4.70;99.90;;;;;;4847370;29;20470;-74
2023/03/07 12:37:49;;;;;;;6.80;5.40;;;4.60;99.90;;;;;;4865626;29;20437;-75
2023/03/07 12:40:44;;;;;;;8.87;6.03;;;4.50;99.90;;;;;;4864516;29;20461;-74
2023/03/07 12:43:43;;;;;;;8.10;6.87;;;4.40;99.90;;;;;;4844100;29;20759;-75
2023/03/07 12:46:23;;;;;;;6.93;6.00;;;4.30;99.90;;;;;;4900212;23;20499;-73
2023/03/07 12:48:55;;;;;;;5.87;4.37;;;4.30;99.90;;;;;;4912757;29;20435;-72
2023/03/07 12:51:31;;;;;;;7.20;5.57;;;4.30;99.90;;;;;;4917286;29;20438;-71
2023/03/07 12:54:25;;;;;;;5.70;4.07;;;4.20;99.90;;;;;;4912230;29;20450;-74
2023/03/07 12:56:54;;;;;;;6.00;5.40;;;4.00;99.90;;;;;;4893969;29;20483;-77
2023/03/07 12:59:23;;;;;;;6.37;4.60;;;4.00;99.90;;;;;;4914025;29;20184;-78
2023/03/07 13:02:23;;;;;;;5.07;4.27;;;3.90;99.90;;;;;;4909607;29;20467;-78
2023/03/07 13:04:56;;;;;;;3.83;3.00;;;3.70;99.90;;;;;;4897252;29;20448;-77
2023/03/07 13:07:45;;;;;;;3.97;2.87;;;3.60;99.90;;;;;;4896341;29;20460;-76
2023/03/07 13:10:17;;;;;;;5.83;4.20;;;3.50;99.90;;;;;;4896080;29;20448;-76
2023/03/07 13:12:44;;;;;;;6.83;5.13;;;3.50;99.90;;;;;;4896618;29;20409;-76
2023/03/07 13:15:30;;;;;;;5.33;4.50;;;3.50;99.90;;;;;;4910198;29;20444;-77